createdAt,value
2018-09-06T00:00:11.958Z,101056.91
2018-09-06T00:01:17.386Z,101053.59
2018-09-06T00:02:22.930Z,101059.09
2018-09-06T00:03:28.347Z,101050.56
2018-09-06T00:04:33.771Z,101054.13
2018-09-06T00:05:39.237Z,101055.75
2018-09-06T00:06:44.667Z,101053.59
2018-09-06T00:07:50.118Z,101058.16
2018-09-06T00:08:55.553Z,101055.20
2018-09-06T00:10:00.963Z,101055.82
2018-09-06T00:11:06.475Z,101059.39
2018-09-06T00:12:12.014Z,101057.95
2018-09-06T00:13:17.450Z,101055.82
2018-09-06T00:14:22.857Z,101059.56
2018-09-06T00:15:28.306Z,101057.66
2018-09-06T00:16:33.766Z,101058.16
2018-09-06T00:17:39.231Z,101052.98
2018-09-06T00:18:44.747Z,101052.29
2018-09-06T00:19:50.233Z,101053.84
2018-09-06T00:20:55.796Z,101056.80
2018-09-06T00:22:01.248Z,101054.67
2018-09-06T00:23:07.108Z,101047.72
2018-09-06T00:24:12.711Z,101053.91
2018-09-06T00:25:18.201Z,101055.96
2018-09-06T00:26:24.043Z,101051.03
2018-09-06T00:27:29.482Z,101048.80
2018-09-06T00:28:34.926Z,101045.30
2018-09-06T00:29:40.478Z,101037.88
2018-09-06T00:30:45.979Z,101046.06
2018-09-06T00:31:51.657Z,101048.28
2018-09-06T00:32:57.068Z,101040.25
2018-09-06T00:34:02.518Z,101040.03
2018-09-06T00:35:07.961Z,101037.05
2018-09-06T00:36:13.402Z,101035.39
2018-09-06T00:37:18.840Z,101035.60
2018-09-06T00:38:24.316Z,101033.41
2018-09-06T00:39:29.842Z,101027.82
2018-09-06T00:40:35.281Z,101029.80
2018-09-06T00:41:40.785Z,101031.97
2018-09-06T00:42:46.305Z,101033.77
2018-09-06T00:43:51.744Z,101030.05
2018-09-06T00:44:57.305Z,101035.74
2018-09-06T00:46:02.733Z,101028.17
2018-09-06T00:47:08.319Z,101028.11
2018-09-06T00:48:13.825Z,101027.71
2018-09-06T00:49:19.276Z,101024.28
2018-09-06T00:50:24.772Z,101024.45
2018-09-06T00:51:30.298Z,101023.83
2018-09-06T00:52:35.762Z,101026.49
2018-09-06T00:53:41.205Z,101024.66
2018-09-06T00:54:46.856Z,101023.83
2018-09-06T00:55:52.321Z,101020.55
2018-09-06T00:56:57.756Z,101020.77
2018-09-06T00:58:03.317Z,101023.21
2018-09-06T00:59:08.879Z,101012.77
2018-09-06T01:00:14.460Z,101016.80
2018-09-06T01:01:20.076Z,101013.98
2018-09-06T01:02:25.532Z,101010.33
2018-09-06T01:03:31.005Z,101008.80
2018-09-06T01:04:36.541Z,101006.66
2018-09-06T01:05:41.996Z,101007.95
2018-09-06T01:06:47.488Z,101006.66
2018-09-06T01:07:52.877Z,101004.14
2018-09-06T01:08:58.321Z,101006.87
2018-09-06T01:10:04.018Z,101009.23
2018-09-06T01:11:09.519Z,101006.58
2018-09-06T01:12:15.717Z,101008.09
2018-09-06T01:13:21.169Z,101006.87
2018-09-06T01:14:27.065Z,101010.69
2018-09-06T01:15:32.487Z,101002.38
2018-09-06T01:16:37.916Z,101001.69
2018-09-06T01:17:43.426Z,101003.53
2018-09-06T01:18:48.855Z,101006.27
2018-09-06T01:19:54.334Z,101007.56
2018-09-06T01:20:59.744Z,101010.46
2018-09-06T01:22:05.185Z,101004.72
2018-09-06T01:23:10.589Z,101002.94
2018-09-06T01:24:16.089Z,101005.07
2018-09-06T01:25:21.965Z,101004.54
2018-09-06T01:26:27.500Z,100999.40
2018-09-06T01:27:32.893Z,100997.67
2018-09-06T01:28:38.347Z,101000.39
2018-09-06T01:29:43.803Z,100991.77
2018-09-06T01:30:49.629Z,100990.94
2018-09-06T01:31:55.119Z,100996.01
2018-09-06T01:33:00.745Z,100991.49
2018-09-06T01:34:06.708Z,100990.53
2018-09-06T01:35:12.205Z,100993.48
2018-09-06T01:36:22.997Z,100986.05
2018-09-06T01:37:28.461Z,100989.77
2018-09-06T01:38:33.903Z,100985.75
2018-09-06T01:39:40.358Z,100984.46
2018-09-06T01:40:45.837Z,100984.53
2018-09-06T01:41:51.252Z,100982.00
2018-09-06T01:42:56.673Z,100977.16
2018-09-06T01:44:02.138Z,100981.88
2018-09-06T01:45:07.880Z,100986.92
2018-09-06T01:46:13.296Z,100988.64
2018-09-06T01:47:18.680Z,100988.54
2018-09-06T01:48:24.117Z,100986.91
2018-09-06T01:49:29.813Z,100989.83
2018-09-06T01:50:35.245Z,100987.84
2018-09-06T01:51:40.626Z,100989.39
2018-09-06T01:52:46.053Z,100988.26
2018-09-06T01:53:51.566Z,100993.03
2018-09-06T01:54:56.968Z,100996.75
2018-09-06T01:56:02.479Z,100989.33
2018-09-06T01:57:07.966Z,100987.23
2018-09-06T01:58:13.411Z,100991.71
2018-09-06T01:59:18.916Z,100991.34
2018-09-06T02:00:24.351Z,100988.42
2018-09-06T02:01:29.805Z,100988.69
2018-09-06T02:02:35.217Z,100988.30
2018-09-06T02:03:40.797Z,100990.81
2018-09-06T02:04:46.257Z,100989.00
2018-09-06T02:05:51.669Z,100987.64
2018-09-06T02:06:57.093Z,100987.70
2018-09-06T02:08:02.489Z,100983.63
2018-09-06T02:09:09.712Z,100984.40
2018-09-06T02:10:15.153Z,100982.86
2018-09-06T02:11:20.832Z,100974.51
2018-09-06T02:12:26.235Z,100976.30
2018-09-06T02:13:31.696Z,100983.17
2018-09-06T02:14:37.118Z,100985.35
2018-09-06T02:15:42.560Z,100972.75
2018-09-06T02:16:48.160Z,100978.82
2018-09-06T02:17:53.549Z,100968.47
2018-09-06T02:18:58.972Z,100978.63
2018-09-06T02:20:04.720Z,100971.23
2018-09-06T02:21:10.112Z,100972.92
2018-09-06T02:22:15.543Z,100972.33
2018-09-06T02:23:21.033Z,100968.52
2018-09-06T02:24:26.531Z,100966.33
2018-09-06T02:25:31.932Z,100969.74
2018-09-06T02:26:38.213Z,100965.09
2018-09-06T02:27:43.697Z,100969.51
2018-09-06T02:28:49.550Z,100967.28
2018-09-06T02:29:54.944Z,100967.05
2018-09-06T02:31:00.406Z,100962.70
2018-09-06T02:32:05.930Z,100966.66
2018-09-06T02:33:11.441Z,100963.83
2018-09-06T02:34:16.939Z,100960.17
2018-09-06T02:35:22.357Z,100964.81
2018-09-06T02:36:27.815Z,100959.95
2018-09-06T02:37:33.223Z,100968.31
2018-09-06T02:38:38.664Z,100975.53
2018-09-06T02:39:44.126Z,100979.76
2018-09-06T02:40:49.573Z,100991.77
2018-09-06T02:41:54.979Z,100989.31
2018-09-06T02:43:00.393Z,100981.22
2018-09-06T02:44:05.823Z,100970.34
2018-09-06T02:45:11.240Z,100961.34
2018-09-06T02:46:16.815Z,100956.02
2018-09-06T02:47:22.246Z,100947.93
2018-09-06T02:48:32.889Z,100944.73
2018-09-06T02:49:43.337Z,100945.09
2018-09-06T02:50:54.042Z,100948.51
2018-09-06T02:51:59.543Z,100955.31
2018-09-06T02:53:04.969Z,100946.20
2018-09-06T02:54:10.384Z,100946.63
2018-09-06T02:55:15.881Z,100943.25
2018-09-06T02:56:21.329Z,100937.68
2018-09-06T02:57:26.781Z,100940.81
2018-09-06T02:58:32.188Z,100952.98
2018-09-06T02:59:37.585Z,100956.86
2018-09-06T03:00:43.030Z,100961.72
2018-09-06T03:01:48.466Z,100966.55
2018-09-06T03:02:53.953Z,100961.20
2018-09-06T03:03:59.381Z,100949.58
2018-09-06T03:05:04.926Z,100954.53
2018-09-06T03:06:10.617Z,100952.54
2018-09-06T03:07:15.988Z,100954.06
2018-09-06T03:08:21.879Z,100953.95
2018-09-06T03:09:27.439Z,100949.50
2018-09-06T03:10:42.790Z,100947.69
2018-09-06T03:11:53.412Z,100943.75
2018-09-06T03:12:58.884Z,100941.36
2018-09-06T03:14:04.541Z,100946.34
2018-09-06T03:15:10.018Z,100948.39
2018-09-06T03:16:15.519Z,100959.75
2018-09-06T03:17:20.928Z,100963.26
2018-09-06T03:18:26.396Z,100968.42
2018-09-06T03:19:32.228Z,100960.47
2018-09-06T03:20:37.818Z,100958.54
2018-09-06T03:21:43.269Z,100952.60
2018-09-06T03:22:48.753Z,100950.86
2018-09-06T03:23:54.310Z,100945.23
2018-09-06T03:24:59.834Z,100940.26
2018-09-06T03:26:20.464Z,100935.55
2018-09-06T03:27:25.904Z,100938.91
2018-09-06T03:28:31.283Z,100944.02
2018-09-06T03:29:36.713Z,100953.70
2018-09-06T03:30:42.110Z,100953.10
2018-09-06T03:31:47.936Z,100946.28
2018-09-06T03:32:53.337Z,100936.59
2018-09-06T03:33:58.716Z,100930.69
2018-09-06T03:35:04.220Z,100924.50
2018-09-06T03:36:09.661Z,100920.16
2018-09-06T03:37:15.444Z,100924.63
2018-09-06T03:38:20.935Z,100933.61
2018-09-06T03:39:33.381Z,100939.95
2018-09-06T03:40:38.832Z,100931.99
2018-09-06T03:41:44.244Z,100926.30
2018-09-06T03:42:49.782Z,100920.09
2018-09-06T03:43:55.256Z,100920.03
2018-09-06T03:45:00.745Z,100922.25
2018-09-06T03:46:07.458Z,100917.02
2018-09-06T03:47:12.860Z,100919.03
2018-09-06T03:48:20.850Z,100920.45
2018-09-06T03:49:27.616Z,100918.17
2018-09-06T03:50:33.266Z,100912.53
2018-09-06T03:51:38.711Z,100914.81
2018-09-06T03:52:44.183Z,100914.94
2018-09-06T03:53:49.718Z,100919.92
2018-09-06T03:54:55.178Z,100920.05
2018-09-06T03:56:00.689Z,100918.50
2018-09-06T03:57:06.921Z,100921.84
2018-09-06T03:58:12.488Z,100919.14
2018-09-06T03:59:17.939Z,100921.09
2018-09-06T04:00:23.466Z,100913.64
2018-09-06T04:01:28.937Z,100909.70
2018-09-06T04:02:34.613Z,100911.00
2018-09-06T04:03:40.090Z,100913.00
2018-09-06T04:04:45.590Z,100917.83
2018-09-06T04:05:51.133Z,100916.94
2018-09-06T04:06:56.580Z,100918.81
2018-09-06T04:08:01.965Z,100915.00
2018-09-06T04:09:10.365Z,100913.41
2018-09-06T04:10:15.743Z,100909.53
2018-09-06T04:11:21.137Z,100908.72
2018-09-06T04:12:26.569Z,100910.72
2018-09-06T04:13:32.093Z,100905.25
2018-09-06T04:14:37.650Z,100906.66
2018-09-06T04:15:43.040Z,100905.71
2018-09-06T04:16:48.440Z,100917.83
2018-09-06T04:17:53.913Z,100906.72
2018-09-06T04:18:59.333Z,100909.53
2018-09-06T04:20:05.427Z,100911.37
2018-09-06T04:21:10.901Z,100910.48
2018-09-06T04:22:16.533Z,100912.08
2018-09-06T04:23:22.030Z,100906.91
2018-09-06T04:24:27.551Z,100908.08
2018-09-06T04:25:33.045Z,100913.55
2018-09-06T04:26:38.412Z,100911.89
2018-09-06T04:27:43.848Z,100912.33
2018-09-06T04:28:49.280Z,100915.13
2018-09-06T04:29:54.748Z,100914.94
2018-09-06T04:31:00.236Z,100918.30
2018-09-06T04:32:05.829Z,100912.60
2018-09-06T04:33:11.438Z,100916.88
2018-09-06T04:34:16.888Z,100912.14
2018-09-06T04:35:22.350Z,100915.43
2018-09-06T04:36:28.124Z,100914.41
2018-09-06T04:37:33.628Z,100915.55
2018-09-06T04:38:39.085Z,100917.06
2018-09-06T04:39:44.566Z,100919.95
2018-09-06T04:40:50.074Z,100926.17
2018-09-06T04:41:55.598Z,100925.61
2018-09-06T04:43:01.047Z,100919.98
2018-09-06T04:44:06.721Z,100921.92
2018-09-06T04:45:12.175Z,100921.46
2018-09-06T04:46:17.849Z,100917.06
2018-09-06T04:47:23.262Z,100917.89
2018-09-06T04:48:28.655Z,100924.17
2018-09-06T04:49:34.114Z,100920.88
2018-09-06T04:50:39.546Z,100921.77
2018-09-06T04:51:44.968Z,100922.88
2018-09-06T04:52:50.402Z,100924.42
2018-09-06T04:53:55.847Z,100927.92
2018-09-06T04:55:01.281Z,100916.48
2018-09-06T04:56:06.776Z,100920.66
2018-09-06T04:57:12.291Z,100913.31
2018-09-06T04:58:17.642Z,100920.66
2018-09-06T04:59:23.040Z,100918.66
2018-09-06T05:00:28.491Z,100913.12
2018-09-06T05:01:34.017Z,100910.14
2018-09-06T05:02:39.801Z,100911.71
2018-09-06T05:03:45.288Z,100911.49
2018-09-06T05:04:50.830Z,100906.08
2018-09-06T05:05:56.284Z,100901.20
2018-09-06T05:07:01.772Z,100905.37
2018-09-06T05:08:07.350Z,100902.84
2018-09-06T05:09:12.782Z,100899.03
2018-09-06T05:10:18.293Z,100905.43
2018-09-06T05:11:23.874Z,100897.98
2018-09-06T05:12:31.343Z,100904.69
2018-09-06T05:13:36.794Z,100903.49
2018-09-06T05:14:42.210Z,100905.73
2018-09-06T05:15:47.685Z,100908.50
2018-09-06T05:16:53.501Z,100903.77
2018-09-06T05:17:59.136Z,100905.64
2018-09-06T05:19:04.574Z,100903.30
2018-09-06T05:20:10.437Z,100909.17
2018-09-06T05:21:15.898Z,100905.83
2018-09-06T05:22:21.316Z,100907.06
2018-09-06T05:23:26.758Z,100902.81
2018-09-06T05:24:32.161Z,100910.94
2018-09-06T05:25:37.593Z,100907.00
2018-09-06T05:26:43.139Z,100911.98
2018-09-06T05:27:48.606Z,100912.69
2018-09-06T05:28:54.124Z,100912.16
2018-09-06T05:29:59.538Z,100911.16
2018-09-06T05:31:04.928Z,100907.98
2018-09-06T05:32:10.363Z,100912.20
2018-09-06T05:33:15.793Z,100912.50
2018-09-06T05:34:21.552Z,100915.78
2018-09-06T05:35:26.926Z,100913.73
2018-09-06T05:36:32.511Z,100919.97
2018-09-06T05:37:37.946Z,100916.36
2018-09-06T05:38:43.352Z,100913.94
2018-09-06T05:39:48.981Z,100915.80
2018-09-06T05:40:54.377Z,100918.98
2018-09-06T05:41:59.805Z,100916.03
2018-09-06T05:43:05.440Z,100916.75
2018-09-06T05:44:11.567Z,100914.06
2018-09-06T05:45:17.390Z,100911.87
2018-09-06T05:46:22.841Z,100913.09
2018-09-06T05:47:28.448Z,100915.16
2018-09-06T05:48:34.065Z,100912.80
2018-09-06T05:49:39.524Z,100913.02
2018-09-06T05:50:45.317Z,100918.13
2018-09-06T05:51:50.888Z,100914.61
2018-09-06T05:52:56.364Z,100917.66
2018-09-06T05:54:01.920Z,100923.78
2018-09-06T05:55:07.638Z,100918.23
2018-09-06T05:56:13.245Z,100918.98
2018-09-06T05:57:19.411Z,100921.94
2018-09-06T05:58:24.855Z,100915.64
2018-09-06T05:59:30.443Z,100920.05
2018-09-06T06:00:50.412Z,100915.48
2018-09-06T06:01:56.034Z,100919.30
2018-09-06T06:03:03.712Z,100923.41
2018-09-06T06:04:09.381Z,100917.47
2018-09-06T06:05:15.326Z,100916.11
2018-09-06T06:06:20.888Z,100917.55
2018-09-06T06:07:40.886Z,100913.80
2018-09-06T06:08:48.023Z,100908.36
2018-09-06T06:09:53.577Z,100913.40
2018-09-06T06:10:59.232Z,100903.16
2018-09-06T06:12:04.720Z,100911.27
2018-09-06T06:13:10.161Z,100912.34
2018-09-06T06:14:15.714Z,100908.28
2018-09-06T06:15:21.232Z,100912.17
2018-09-06T06:16:26.858Z,100907.20
2018-09-06T06:17:32.472Z,100899.89
2018-09-06T06:18:37.988Z,100901.19
2018-09-06T06:19:43.673Z,100900.89
2018-09-06T06:20:49.244Z,100897.83
2018-09-06T06:21:55.173Z,100901.61
2018-09-06T06:23:00.786Z,100904.02
2018-09-06T06:24:06.756Z,100902.17
2018-09-06T06:25:12.233Z,100905.56
2018-09-06T06:26:17.864Z,100907.61
2018-09-06T06:27:23.393Z,100909.51
2018-09-06T06:28:28.918Z,100904.59
2018-09-06T06:29:34.505Z,100904.56
2018-09-06T06:30:40.130Z,100907.36
2018-09-06T06:31:45.690Z,100908.99
2018-09-06T06:32:51.188Z,100904.48
2018-09-06T06:33:56.754Z,100904.17
2018-09-06T06:35:02.410Z,100903.23
2018-09-06T06:36:08.378Z,100904.17
2018-09-06T06:37:14.290Z,100901.57
2018-09-06T06:38:19.932Z,100901.93
2018-09-06T06:39:25.571Z,100908.81
2018-09-06T06:40:31.077Z,100908.81
2018-09-06T06:41:37.085Z,100907.63
2018-09-06T06:42:42.605Z,100910.08
2018-09-06T06:43:48.122Z,100908.78
2018-09-06T06:44:53.943Z,100913.78
2018-09-06T06:45:59.502Z,100907.09
2018-09-06T06:47:05.314Z,100913.97
2018-09-06T06:48:10.954Z,100907.76
2018-09-06T06:49:16.564Z,100906.27
2018-09-06T06:50:22.340Z,100904.96
2018-09-06T06:51:27.779Z,100907.24
2018-09-06T06:52:33.359Z,100909.02
2018-09-06T06:53:38.824Z,100908.42
2018-09-06T06:54:44.424Z,100914.03
2018-09-06T06:55:49.848Z,100912.91
2018-09-06T06:56:55.274Z,100907.25
2018-09-06T06:58:00.755Z,100919.09
2018-09-06T06:59:06.300Z,100919.66
2018-09-06T07:00:12.096Z,100923.55
2018-09-06T07:01:17.910Z,100921.63
2018-09-06T07:02:23.397Z,100923.84
2018-09-06T07:03:28.928Z,100918.72
2018-09-06T07:04:34.636Z,100919.61
2018-09-06T07:05:40.904Z,100915.30
2018-09-06T07:06:46.448Z,100917.90
2018-09-06T07:07:52.071Z,100915.77
2018-09-06T07:08:57.842Z,100915.43
2018-09-06T07:10:03.369Z,100916.66
2018-09-06T07:11:08.961Z,100920.75
2018-09-06T07:12:14.768Z,100921.17
2018-09-06T07:13:20.411Z,100923.42
2018-09-06T07:14:26.312Z,100923.61
2018-09-06T07:15:31.773Z,100927.16
2018-09-06T07:16:37.520Z,100927.69
2018-09-06T07:17:43.092Z,100927.13
2018-09-06T07:18:48.666Z,100927.30
2018-09-06T07:19:54.266Z,100926.67
2018-09-06T07:20:59.900Z,100922.55
2018-09-06T07:22:05.665Z,100927.97
2018-09-06T07:23:11.262Z,100928.46
2018-09-06T07:24:16.925Z,100926.94
2018-09-06T07:25:22.522Z,100924.62
2018-09-06T07:26:28.013Z,100929.27
2018-09-06T07:27:33.681Z,100923.14
2018-09-06T07:28:39.313Z,100926.08
2018-09-06T07:29:45.075Z,100929.84
2018-09-06T07:30:50.616Z,100933.67
2018-09-06T07:31:56.218Z,100933.89
2018-09-06T07:33:01.649Z,100931.98
2018-09-06T07:34:07.555Z,100931.15
2018-09-06T07:35:13.190Z,100936.22
2018-09-06T07:36:18.908Z,100928.67
2018-09-06T07:37:24.517Z,100932.84
2018-09-06T07:38:30.460Z,100928.33
2018-09-06T07:39:35.941Z,100927.86
2018-09-06T07:40:41.737Z,100929.76
2018-09-06T07:41:47.456Z,100931.27
2018-09-06T07:42:53.339Z,100936.38
2018-09-06T07:43:58.998Z,100931.58
2018-09-06T07:45:05.156Z,100927.61
2018-09-06T07:46:10.643Z,100931.58
2018-09-06T07:47:16.094Z,100929.21
2018-09-06T07:48:21.645Z,100931.52
2018-09-06T07:49:27.234Z,100923.69
2018-09-06T07:50:32.677Z,100925.81
2018-09-06T07:51:38.277Z,100920.70
2018-09-06T07:52:44.100Z,100912.55
2018-09-06T07:53:49.730Z,100912.58
2018-09-06T07:54:55.482Z,100915.45
2018-09-06T07:56:01.329Z,100909.70
2018-09-06T07:57:07.121Z,100906.17
2018-09-06T07:58:12.854Z,100904.87
2018-09-06T07:59:18.636Z,100899.68
2018-09-06T08:00:24.406Z,100901.05
2018-09-06T08:01:30.092Z,100902.61
2018-09-06T08:02:35.796Z,100898.88
2018-09-06T08:03:41.864Z,100898.72
2018-09-06T08:04:47.545Z,100895.27
2018-09-06T08:05:53.253Z,100896.05
2018-09-06T08:06:58.972Z,100892.94
2018-09-06T08:08:04.552Z,100894.02
2018-09-06T08:09:12.377Z,100892.33
2018-09-06T08:10:18.081Z,100897.52
2018-09-06T08:11:23.840Z,100892.05
2018-09-06T08:12:29.374Z,100897.85
2018-09-06T08:13:35.065Z,100885.03
2018-09-06T08:14:40.516Z,100892.42
2018-09-06T08:15:46.036Z,100886.26
2018-09-06T08:16:51.752Z,100884.28
2018-09-06T08:17:57.546Z,100886.88
2018-09-06T08:19:03.168Z,100885.77
2018-09-06T08:20:09.025Z,100884.83
2018-09-06T08:21:14.669Z,100878.61
2018-09-06T08:22:20.142Z,100884.94
2018-09-06T08:23:25.766Z,100875.36
2018-09-06T08:24:31.546Z,100871.47
2018-09-06T08:25:37.273Z,100874.96
2018-09-06T08:26:42.912Z,100879.62
2018-09-06T08:27:48.438Z,100875.27
2018-09-06T08:28:54.091Z,100875.31
2018-09-06T08:29:59.756Z,100880.64
2018-09-06T08:31:05.363Z,100887.27
2018-09-06T08:32:10.942Z,100883.31
2018-09-06T08:33:16.784Z,100889.03
2018-09-06T08:34:22.633Z,100880.10
2018-09-06T08:35:28.344Z,100884.82
2018-09-06T08:36:33.784Z,100885.50
2018-09-06T08:37:39.416Z,100884.06
2018-09-06T08:38:44.938Z,100881.67
2018-09-06T08:39:50.349Z,100885.28
2018-09-06T08:40:55.770Z,100884.73
2018-09-06T08:42:01.240Z,100882.83
2018-09-06T08:43:06.929Z,100880.70
2018-09-06T08:44:12.415Z,100876.81
2018-09-06T08:45:18.029Z,100880.84
2018-09-06T08:46:23.837Z,100877.38
2018-09-06T08:47:29.444Z,100870.48
2018-09-06T08:48:35.249Z,100865.58
2018-09-06T08:49:40.721Z,100858.27
2018-09-06T08:50:46.415Z,100850.25
2018-09-06T08:51:52.204Z,100853.97
2018-09-06T08:52:58.196Z,100841.70
2018-09-06T08:54:03.696Z,100847.56
2018-09-06T08:55:09.208Z,100847.28
2018-09-06T08:56:14.928Z,100850.83
2018-09-06T08:57:20.546Z,100846.08
2018-09-06T08:58:26.679Z,100838.98
2018-09-06T08:59:32.310Z,100832.96
2018-09-06T09:00:40.487Z,100831.30
2018-09-06T09:01:46.110Z,100831.20
2018-09-06T09:02:51.791Z,100831.81
2018-09-06T09:03:57.911Z,100825.67
2018-09-06T09:05:03.420Z,100829.55
2018-09-06T09:06:09.142Z,100832.97
2018-09-06T09:07:14.969Z,100830.63
2018-09-06T09:08:20.812Z,100830.52
2018-09-06T09:09:26.446Z,100831.59
2018-09-06T09:10:32.175Z,100835.14
2018-09-06T09:11:38.317Z,100836.29
2018-09-06T09:12:43.789Z,100838.42
2018-09-06T09:13:49.288Z,100846.78
2018-09-06T09:14:55.325Z,100844.05
2018-09-06T09:16:01.873Z,100844.70
2018-09-06T09:17:07.477Z,100844.16
2018-09-06T09:18:13.051Z,100845.73
2018-09-06T09:19:18.525Z,100845.94
2018-09-06T09:20:24.046Z,100848.52
2018-09-06T09:21:29.550Z,100836.87
2018-09-06T09:22:35.021Z,100838.86
2018-09-06T09:23:40.404Z,100839.70
2018-09-06T09:24:46.722Z,100841.86
2018-09-06T09:25:52.385Z,100838.09
2018-09-06T09:26:58.088Z,100838.86
2018-09-06T09:28:03.648Z,100837.27
2018-09-06T09:29:09.125Z,100833.20
2018-09-06T09:30:15.247Z,100834.97
2018-09-06T09:31:21.193Z,100832.63
2018-09-06T09:32:26.635Z,100833.93
2018-09-06T09:33:32.222Z,100829.72
2018-09-06T09:34:37.733Z,100831.27
2018-09-06T09:35:43.488Z,100827.17
2018-09-06T09:36:49.152Z,100821.24
2018-09-06T09:37:54.620Z,100828.85
2018-09-06T09:39:00.184Z,100823.00
2018-09-06T09:40:06.372Z,100822.98
2018-09-06T09:41:11.872Z,100824.00
2018-09-06T09:42:17.537Z,100831.64
2018-09-06T09:43:23.160Z,100830.61
2018-09-06T09:44:28.729Z,100828.32
2018-09-06T09:45:34.156Z,100831.75
2018-09-06T09:47:44.307Z,100836.22
2018-09-06T09:48:50.238Z,100830.59
2018-09-06T09:49:55.806Z,100834.11
2018-09-06T09:51:01.258Z,100840.17
2018-09-06T09:52:06.849Z,100835.97
2018-09-06T09:53:12.307Z,100842.07
2018-09-06T09:54:18.188Z,100836.02
2018-09-06T09:55:23.645Z,100837.37
2018-09-06T09:56:29.120Z,100836.38
2018-09-06T09:57:34.658Z,100843.41
2018-09-06T09:58:40.194Z,100840.53
2018-09-06T09:59:45.660Z,100837.42
2018-09-06T10:00:51.153Z,100842.90
2018-09-06T10:02:01.762Z,100845.98
2018-09-06T10:03:12.479Z,100840.84
2018-09-06T10:04:23.137Z,100836.36
2018-09-06T10:05:33.856Z,100833.14
2018-09-06T10:06:44.699Z,100838.60
2018-09-06T10:07:57.326Z,100837.10
2018-09-06T10:09:07.877Z,100836.63
2018-09-06T10:10:13.584Z,100841.80
2018-09-06T10:11:19.110Z,100834.23
2018-09-06T10:12:24.624Z,100837.00
2018-09-06T10:13:30.105Z,100838.31
2018-09-06T10:14:35.569Z,100834.89
2018-09-06T10:15:41.889Z,100835.37
2018-09-06T10:16:47.588Z,100835.42
2018-09-06T10:17:53.021Z,100835.42
2018-09-06T10:18:58.604Z,100836.82
2018-09-06T10:20:04.287Z,100832.52
2018-09-06T10:21:09.887Z,100838.52
2018-09-06T10:22:15.710Z,100844.42
2018-09-06T10:23:21.809Z,100843.59
2018-09-06T10:24:27.396Z,100844.11
2018-09-06T10:25:33.021Z,100842.00
2018-09-06T10:26:38.958Z,100843.64
2018-09-06T10:27:44.747Z,100845.67
2018-09-06T10:28:50.255Z,100851.42
2018-09-06T10:29:55.783Z,100856.69
2018-09-06T10:31:01.566Z,100847.31
2018-09-06T10:32:07.328Z,100853.24
2018-09-06T10:33:12.945Z,100858.48
2018-09-06T10:34:18.496Z,100859.73
2018-09-06T10:35:24.023Z,100861.61
2018-09-06T10:36:29.652Z,100857.59
2018-09-06T10:37:35.093Z,100854.84
2018-09-06T10:38:40.696Z,100853.66
2018-09-06T10:39:46.281Z,100858.77
2018-09-06T10:40:51.768Z,100850.77
2018-09-06T10:41:57.202Z,100854.20
2018-09-06T10:43:02.762Z,100849.88
2018-09-06T10:44:08.400Z,100854.23
2018-09-06T10:45:14.008Z,100853.56
2018-09-06T10:46:19.582Z,100857.89
2018-09-06T10:47:25.281Z,100856.16
2018-09-06T10:48:30.747Z,100847.60
2018-09-06T10:49:36.168Z,100848.02
2018-09-06T10:50:41.699Z,100848.05
2018-09-06T10:51:47.285Z,100850.55
2018-09-06T10:52:52.756Z,100851.86
2018-09-06T10:53:58.364Z,100848.59
2018-09-06T10:55:04.103Z,100844.16
2018-09-06T10:56:09.917Z,100850.37
2018-09-06T10:57:15.485Z,100843.02
2018-09-06T10:58:21.068Z,100846.31
2018-09-06T10:59:26.701Z,100842.42
2018-09-06T11:00:32.174Z,100842.46
2018-09-06T11:01:37.951Z,100841.24
2018-09-06T11:02:43.623Z,100840.52
2018-09-06T11:03:50.260Z,100842.94
2018-09-06T11:04:55.830Z,100836.32
2018-09-06T11:06:01.484Z,100839.84
2018-09-06T11:07:07.145Z,100844.73
2018-09-06T11:08:12.791Z,100843.92
2018-09-06T11:09:18.539Z,100841.22
2018-09-06T11:10:24.122Z,100841.23
2018-09-06T11:11:29.626Z,100843.05
2018-09-06T11:12:35.281Z,100841.56
2018-09-06T11:13:41.091Z,100838.14
2018-09-06T11:14:47.017Z,100842.70
2018-09-06T11:15:52.520Z,100849.59
2018-09-06T11:16:57.957Z,100846.44
2018-09-06T11:18:03.440Z,100838.45
2018-09-06T11:19:09.000Z,100840.52
2018-09-06T11:20:14.581Z,100839.55
2018-09-06T11:21:20.147Z,100839.33
2018-09-06T11:22:25.574Z,100843.25
2018-09-06T11:23:31.372Z,100839.76
2018-09-06T11:24:37.200Z,100851.66
2018-09-06T11:25:42.722Z,100845.32
2018-09-06T11:26:48.280Z,100841.24
2018-09-06T11:27:53.735Z,100842.42
2018-09-06T11:28:59.372Z,100843.16
2018-09-06T11:30:05.027Z,100841.31
2018-09-06T11:31:10.529Z,100838.13
2018-09-06T11:32:16.109Z,100835.41
2018-09-06T11:33:21.787Z,100832.44
2018-09-06T11:34:27.344Z,100831.29
2018-09-06T11:35:32.942Z,100837.23
2018-09-06T11:36:38.404Z,100832.22
2018-09-06T11:37:43.900Z,100835.02
2018-09-06T11:38:49.420Z,100831.68
2018-09-06T11:39:54.917Z,100839.83
2018-09-06T11:41:00.437Z,100834.27
2018-09-06T11:42:05.973Z,100831.01
2018-09-06T11:43:11.483Z,100832.66
2018-09-06T11:44:17.019Z,100828.53
2018-09-06T11:45:23.000Z,100833.30
2018-09-06T11:46:28.613Z,100834.49
2018-09-06T11:47:34.232Z,100833.80
2018-09-06T11:48:39.769Z,100836.63
2018-09-06T11:49:46.705Z,100832.59
2018-09-06T11:50:52.182Z,100838.27
2018-09-06T11:51:57.764Z,100836.61
2018-09-06T11:53:03.241Z,100830.61
2018-09-06T11:54:08.918Z,100833.13
2018-09-06T11:55:14.507Z,100835.09
2018-09-06T11:56:20.169Z,100831.84
2018-09-06T11:57:25.815Z,100835.54
2018-09-06T11:58:31.360Z,100823.41
2018-09-06T11:59:36.837Z,100833.14
2018-09-06T12:00:43.862Z,100827.17
2018-09-06T12:01:49.461Z,100832.05
2018-09-06T12:02:54.915Z,100821.97
2018-09-06T12:04:00.502Z,100829.97
2018-09-06T12:05:06.008Z,100830.23
2018-09-06T12:06:11.450Z,100825.94
2018-09-06T12:07:16.928Z,100828.53
2018-09-06T12:08:22.418Z,100823.09
2018-09-06T12:09:28.248Z,100826.10
2018-09-06T12:10:33.663Z,100824.45
2018-09-06T12:11:39.077Z,100824.11
2018-09-06T12:12:44.553Z,100821.39
2018-09-06T12:13:50.145Z,100826.19
2018-09-06T12:14:55.650Z,100823.81
2018-09-06T12:16:01.196Z,100824.88
2018-09-06T12:17:06.732Z,100820.98
2018-09-06T12:18:12.212Z,100824.47
2018-09-06T12:19:17.736Z,100829.03
2018-09-06T12:20:23.196Z,100831.33
2018-09-06T12:21:28.657Z,100830.64
2018-09-06T12:22:34.156Z,100831.38
2018-09-06T12:23:39.699Z,100831.38
2018-09-06T12:24:45.305Z,100834.58
2018-09-06T12:25:50.904Z,100833.81
2018-09-06T12:26:56.399Z,100831.55
2018-09-06T12:28:01.896Z,100828.56
2018-09-06T12:29:07.472Z,100826.50
2018-09-06T12:30:13.069Z,100824.30
2018-09-06T12:31:18.758Z,100826.47